This is the latest recevied weather packets stored in our database for station/object KG7BDA. If no packets are shown the sender has not sent any weather packets the latest 10 day(s).
| Time | Temp. | Humidity | Pressure | Rain* | Wind** | Luminosity | Snow |
|---|---|---|---|---|---|---|---|
| 1777621150 | 8.89° C | 68% | 1020.8 hPa | 0 mm | - | - | - |
| 1777620790 | 8.89° C | 69% | 1020.6 hPa | 0 mm | - | - | - |
| 1777620430 | 8.33° C | 71% | 1020.6 hPa | 0 mm | - | - | - |
| 1777620070 | 8.33° C | 71% | 1020.6 hPa | 0 mm | - | - | - |
| 1777619709 | 8.33° C | 70% | 1020.6 hPa | 0 mm | - | - | - |
| 1777619349 | 8.33° C | 72% | 1020.6 hPa | 0 mm | - | - | - |
| 1777618990 | 8.33° C | 71% | 1020.7 hPa | 0 mm | - | - | - |
| 1777618629 | 8.33° C | 71% | 1020.4 hPa | 0 mm | - | - | - |
| 1777618270 | 8.33° C | 71% | 1020.3 hPa | 0 mm | - | - | - |
| 1777617910 | 8.33° C | 72% | 1020.3 hPa | 0 mm | - | - | - |
| 1777617549 | 7.78° C | 72% | 1020.4 hPa | 0 mm | - | - | - |
| 1777617190 | 7.78° C | 72% | 1020.3 hPa | 0 mm | - | - | - |
| 1777616829 | 8.89° C | 67% | 1020.3 hPa | 0 mm | - | - | - |
| 1777616470 | 10.56° C | 62% | 1020.3 hPa | 0 mm | - | - | - |
| 1777616110 | 10.56° C | 61% | 1020.2 hPa | 0 mm | - | - | - |
| 1777615750 | 10.56° C | 64% | 1020.2 hPa | 0 mm | - | - | - |
| 1777615390 | 9.44° C | 70% | 1020.1 hPa | 0 mm | - | - | - |
| 1777615029 | 8.89° C | 72% | 1019.9 hPa | 0 mm | - | - | - |
| 1777614670 | 8.33° C | 71% | 1020 hPa | 0 mm | - | - | - |
| 1777614342 | 8.89° C | 68% | 1019.9 hPa | 0 mm | - | - | - |
| 1777614310 | 8.89° C | 68% | 1019.9 hPa | 0 mm | - | - | - |
| 1777613950 | 9.44° C | 66% | 1019.9 hPa | 0 mm | - | - | - |
| 1777613590 | 10.56° C | 62% | 1019.7 hPa | 0 mm | - | - | - |
| 1777613230 | 11.67° C | 58% | 1019.9 hPa | 0 mm | - | - | - |
| 1777612869 | 11.67° C | 59% | 1019.8 hPa | 0 mm | - | - | - |
* Rain latest hour (hover to see other rain measurements)
** Current wind speed in m/s (hover to see current wind gust speed)